Time;durP1;ratioP1;P1;durP2;ratioP2;P2;SDS_P1;SDS_P2;PMS_P1;PMS_P2;Temp;Humidity;BMP_temperature;BMP_pressure;BME280_temperature;BME280_humidity;BME280_pressure;Samples;Min_cycle;Max_cycle;Signal;HPM_P1;HPM_P2
2021/01/15 00:04:42;;;;;;;;;;;;;;;;;;5052542;28;1298;-73
2021/01/15 00:07:07;;;;;;;;;;;;;;;;;;5063161;28;1007;-72
2021/01/15 00:09:44;;;;;;;;;;;;;;;;;;5073789;28;907;-72
2021/01/15 00:12:12;;;;;;;;;;;;;;;;;;5066713;28;988;-73
2021/01/15 00:14:37;;;;;;;;;;;;;;;;;;5068911;28;1397;-72
2021/01/15 00:17:02;;;;;;;;;;;;;;;;;;5074416;28;856;-73
2021/01/15 00:19:27;;;;;;;;;;;;;;;;;;5074582;28;904;-76
2021/01/15 00:21:53;;;;;;;;;;;;;;;;;;5074331;28;1904;-77
2021/01/15 00:24:19;;;;;;;;;;;;;;;;;;5073131;28;1317;-75
2021/01/15 00:26:45;;;;;;;;;;;;;;;;;;5074609;28;1421;-76
2021/01/15 00:32:18;;;;;;;;;;;;;;;;;;5072303;28;999;-75
2021/01/15 00:41:03;;;;;;;;;;;;;;;;;;5065694;28;807;-75
2021/01/15 00:43:28;;;;;;;;;;;;;;;;;;5070927;28;1898;-77
2021/01/15 00:45:53;;;;;;;;;;;;;;;;;;5064587;28;1408;-76
2021/01/15 00:48:19;;;;;;;;;;;;;;;;;;5065489;28;810;-76
2021/01/15 00:50:44;;;;;;;;;;;;;;;;;;5073962;28;945;-74
2021/01/15 00:53:09;;;;;;;;;;;;;;;;;;5074062;28;797;-74
2021/01/15 00:55:34;;;;;;;;;;;;;;;;;;5073622;28;1258;-79
2021/01/15 00:58:01;;;;;;;;;;;;;;;;;;5073644;28;821;-72
2021/01/15 01:00:26;;;;;;;;;;;;;;;;;;5072023;28;1389;-78
2021/01/15 01:02:52;;;;;;;;;;;;;;;;;;5073284;28;1894;-76
2021/01/15 01:05:20;;;;;;;;;;;;;;;;;;5072570;28;1552;-76
2021/01/15 01:07:47;;;;;;;;;;;;;;;;;;5074259;28;1308;-78
2021/01/15 01:10:13;;;;;;;;;;;;;;;;;;5077072;28;889;-77
2021/01/15 01:12:38;;;;;;;;;;;;;;;;;;5077330;28;920;-77
2021/01/15 01:15:04;;;;;;;;;;;;;;;;;;5077373;28;1309;-76
2021/01/15 01:17:29;;;;;;;;;;;;;;;;;;5077051;28;948;-75
2021/01/15 01:19:54;;;;;;;;;;;;;;;;;;5070277;28;991;-76
2021/01/15 01:22:20;;;;;;;;;;;;;;;;;;5065874;28;1901;-74
2021/01/15 01:24:45;;;;;;;;;;;;;;;;;;5077001;28;1389;-76
2021/01/15 01:27:10;;;;;;;;;;;;;;;;;;5076713;28;979;-71
2021/01/15 01:29:35;;;;;;;;;;;;;;;;;;5076858;28;802;-74
2021/01/15 01:32:01;;;;;;;;;;;;;;;;;;5075510;28;834;-77
2021/01/15 01:34:26;;;;;;;;;;;;;;;;;;5077027;28;1384;-75
2021/01/15 01:36:51;;;;;;;;;;;;;;;;;;5075561;28;897;-74
2021/01/15 01:39:16;;;;;;;;;;;;;;;;;;5076462;28;1327;-74
2021/01/15 01:41:41;;;;;;;;;;;;;;;;;;5075241;28;1312;-74
2021/01/15 01:44:07;;;;;;;;;;;;;;;;;;5076674;28;1897;-76
2021/01/15 01:46:32;;;;;;;;;;;;;;;;;;5075406;28;1388;-77
2021/01/15 01:48:57;;;;;;;;;;;;;;;;;;5076607;28;1051;-75
2021/01/15 01:51:23;;;;;;;;;;;;;;;;;;5076254;28;1046;-74
2021/01/15 01:53:49;;;;;;;;;;;;;;;;;;5076573;28;1043;-74
2021/01/15 01:56:14;;;;;;;;;;;;;;;;;;5076356;28;1416;-76
2021/01/15 01:58:39;;;;;;;;;;;;;;;;;;5076660;28;923;-75
2021/01/15 02:01:06;;;;;;;;;;;;;;;;;;5076306;28;976;-75
2021/01/15 02:03:31;;;;;;;;;;;;;;;;;;5074828;28;1969;-73
2021/01/15 02:05:57;;;;;;;;;;;;;;;;;;5076423;28;1384;-74
2021/01/15 02:08:22;;;;;;;;;;;;;;;;;;5076362;28;813;-76
2021/01/15 02:11:06;;;;;;;;;;;;;;;;;;5076050;28;852;-74
2021/01/15 02:13:51;;;;;;;;;;;;;;;;;;5076145;28;968;-75
2021/01/15 02:16:22;;;;;;;;;;;;;;;;;;5075854;28;1341;-74
2021/01/15 02:18:50;;;;;;;;;;;;;;;;;;5075528;28;940;-74
2021/01/15 02:21:28;;;;;;;;;;;;;;;;;;5075900;28;912;-77
2021/01/15 02:23:56;;;;;;;;;;;;;;;;;;5074673;28;1960;-77
2021/01/15 02:26:40;;;;;;;;;;;;;;;;;;5075892;28;1297;-77
2021/01/15 02:29:05;;;;;;;;;;;;;;;;;;5076122;28;802;-76
2021/01/15 02:31:30;;;;;;;;;;;;;;;;;;5074137;28;1218;-77
2021/01/15 02:34:15;;;;;;;;;;;;;;;;;;5074469;28;1733;-75
2021/01/15 02:36:43;;;;;;;;;;;;;;;;;;5075740;28;1375;-77
2021/01/15 02:39:18;;;;;;;;;;;;;;;;;;5075517;28;992;-75
2021/01/15 02:41:43;;;;;;;;;;;;;;;;;;5074436;28;940;-72
2021/01/15 02:44:11;;;;;;;;;;;;;;;;;;5074211;28;1914;-73
2021/01/15 02:46:45;;;;;;;;;;;;;;;;;;5075526;28;1290;-77
2021/01/15 02:49:11;;;;;;;;;;;;;;;;;;5075534;28;900;-77
2021/01/15 02:51:38;;;;;;;;;;;;;;;;;;5074017;28;920;-73
2021/01/15 02:54:04;;;;;;;;;;;;;;;;;;5073824;28;1213;-74
2021/01/15 02:56:29;;;;;;;;;;;;;;;;;;5075231;28;1333;-76
2021/01/15 02:58:54;;;;;;;;;;;;;;;;;;5075372;28;901;-78
2021/01/15 03:01:21;;;;;;;;;;;;;;;;;;5075040;28;928;-77
2021/01/15 03:03:56;;;;;;;;;;;;;;;;;;5075048;28;1886;-74
2021/01/15 03:06:27;;;;;;;;;;;;;;;;;;5073596;28;1369;-76
2021/01/15 03:08:53;;;;;;;;;;;;;;;;;;5073769;28;1231;-76
2021/01/15 03:11:19;;;;;;;;;;;;;;;;;;5073562;28;1219;-75
2021/01/15 03:13:45;;;;;;;;;;;;;;;;;;5073964;28;1217;-76
2021/01/15 03:16:12;;;;;;;;;;;;;;;;;;5074199;28;1595;-74
2021/01/15 03:18:39;;;;;;;;;;;;;;;;;;5075196;28;863;-77
2021/01/15 03:21:04;;;;;;;;;;;;;;;;;;5075062;28;862;-76
2021/01/15 03:23:34;;;;;;;;;;;;;;;;;;5074190;28;1905;-75
2021/01/15 03:26:00;;;;;;;;;;;;;;;;;;5075250;28;1432;-76
2021/01/15 03:28:25;;;;;;;;;;;;;;;;;;5074019;28;1003;-76
2021/01/15 03:30:51;;;;;;;;;;;;;;;;;;5073960;28;924;-75
2021/01/15 03:33:16;;;;;;;;;;;;;;;;;;5075254;28;909;-75
2021/01/15 03:35:41;;;;;;;;;;;;;;;;;;5075113;28;1329;-74
2021/01/15 03:38:10;;;;;;;;;;;;;;;;;;5074899;28;849;-74
2021/01/15 03:40:45;;;;;;;;;;;;;;;;;;5074936;28;912;-75
2021/01/15 03:43:15;;;;;;;;;;;;;;;;;;5073668;28;1906;-74
2021/01/15 03:45:41;;;;;;;;;;;;;;;;;;5075134;28;1321;-75
2021/01/15 03:48:06;;;;;;;;;;;;;;;;;;5074872;28;1049;-76
2021/01/15 03:50:32;;;;;;;;;;;;;;;;;;5074779;28;900;-74
2021/01/15 03:52:57;;;;;;;;;;;;;;;;;;5074720;28;868;-76
2021/01/15 03:55:22;;;;;;;;;;;;;;;;;;5073546;28;1336;-75
2021/01/15 03:57:47;;;;;;;;;;;;;;;;;;5074665;28;936;-75
2021/01/15 04:00:13;;;;;;;;;;;;;;;;;;5074637;28;904;-71
2021/01/15 04:02:38;;;;;;;;;;;;;;;;;;5073510;28;1905;-74
2021/01/15 04:05:04;;;;;;;;;;;;;;;;;;5073378;28;2514;-73
2021/01/15 04:07:29;;;;;;;;;;;;;;;;;;5073321;28;1115;-72
2021/01/15 04:09:55;;;;;;;;;;;;;;;;;;5074653;28;877;-70
2021/01/15 04:12:20;;;;;;;;;;;;;;;;;;5073294;28;1330;-73
2021/01/15 04:14:45;;;;;;;;;;;;;;;;;;5074579;28;1412;-74
2021/01/15 04:17:10;;;;;;;;;;;;;;;;;;5073298;28;1610;-72
2021/01/15 04:19:36;;;;;;;;;;;;;;;;;;5074569;28;975;-72
2021/01/15 04:22:01;;;;;;;;;;;;;;;;;;5074228;28;1976;-73
2021/01/15 04:24:26;;;;;;;;;;;;;;;;;;5074471;28;1302;-73
2021/01/15 04:26:52;;;;;;;;;;;;;;;;;;5074469;28;947;-73
2021/01/15 04:29:18;;;;;;;;;;;;;;;;;;5073391;28;1225;-72
2021/01/15 04:31:43;;;;;;;;;;;;;;;;;;5074333;28;864;-73
2021/01/15 04:34:08;;;;;;;;;;;;;;;;;;5074313;28;960;-73
2021/01/15 04:36:37;;;;;;;;;;;;;;;;;;5074374;28;1314;-72
2021/01/15 04:39:03;;;;;;;;;;;;;;;;;;5073308;28;1559;-72
2021/01/15 04:41:30;;;;;;;;;;;;;;;;;;5074525;28;1376;-72
2021/01/15 04:43:55;;;;;;;;;;;;;;;;;;5078377;28;1890;-72
2021/01/15 04:46:21;;;;;;;;;;;;;;;;;;5076907;28;1377;-72
2021/01/15 04:48:50;;;;;;;;;;;;;;;;;;5077402;28;948;-73
2021/01/15 04:51:19;;;;;;;;;;;;;;;;;;5078266;28;895;-73
2021/01/15 04:53:50;;;;;;;;;;;;;;;;;;5078210;28;802;-72
2021/01/15 04:56:16;;;;;;;;;;;;;;;;;;5077954;28;1289;-72
2021/01/15 04:58:46;;;;;;;;;;;;;;;;;;5078171;28;878;-72
2021/01/15 05:01:13;;;;;;;;;;;;;;;;;;5076673;28;1171;-73
2021/01/15 05:03:40;;;;;;;;;;;;;;;;;;5077992;28;1894;-73
2021/01/15 05:06:07;;;;;;;;;;;;;;;;;;5077865;28;1301;-73
2021/01/15 05:08:34;;;;;;;;;;;;;;;;;;5077564;28;1027;-72
2021/01/15 05:11:02;;;;;;;;;;;;;;;;;;5078047;28;893;-72
2021/01/15 05:13:34;;;;;;;;;;;;;;;;;;5078020;28;912;-73
2021/01/15 05:16:01;;;;;;;;;;;;;;;;;;5076337;28;1444;-73
2021/01/15 05:18:30;;;;;;;;;;;;;;;;;;5077545;28;837;-73
2021/01/15 05:20:56;;;;;;;;;;;;;;;;;;5077534;28;936;-72
2021/01/15 05:23:22;;;;;;;;;;;;;;;;;;5077374;28;1894;-73
2021/01/15 05:25:47;;;;;;;;;;;;;;;;;;5077042;28;1310;-73
2021/01/15 05:28:16;;;;;;;;;;;;;;;;;;5076222;28;1246;-72
2021/01/15 05:30:42;;;;;;;;;;;;;;;;;;5077297;28;901;-73
2021/01/15 05:33:11;;;;;;;;;;;;;;;;;;5076312;28;1217;-73
2021/01/15 05:35:47;;;;;;;;;;;;;;;;;;5077508;28;1282;-73
2021/01/15 05:38:16;;;;;;;;;;;;;;;;;;5077215;28;884;-73
2021/01/15 05:40:41;;;;;;;;;;;;;;;;;;5077338;28;809;-74
2021/01/15 05:43:07;;;;;;;;;;;;;;;;;;5075972;28;2279;-72
2021/01/15 05:45:33;;;;;;;;;;;;;;;;;;5075913;28;1361;-73
2021/01/15 05:47:58;;;;;;;;;;;;;;;;;;5077118;28;829;-72
2021/01/15 05:50:36;;;;;;;;;;;;;;;;;;5077112;28;844;-72
2021/01/15 05:53:01;;;;;;;;;;;;;;;;;;5076160;28;888;-73
2021/01/15 05:55:27;;;;;;;;;;;;;;;;;;5075807;28;1364;-73
2021/01/15 05:57:52;;;;;;;;;;;;;;;;;;5077112;28;952;-72
2021/01/15 06:00:29;;;;;;;;;;;;;;;;;;5076897;28;972;-73
2021/01/15 06:02:55;;;;;;;;;;;;;;;;;;5075472;28;1914;-72
2021/01/15 06:05:21;;;;;;;;;;;;;;;;;;5059205;28;1572;-73
2021/01/15 06:07:53;;;;;;;;;;;;;;;;;;5075937;28;1155;-74
2021/01/15 06:10:18;;;;;;;;;;;;;;;;;;5076694;28;1066;-73
2021/01/15 06:12:43;;;;;;;;;;;;;;;;;;5076897;28;980;-72
2021/01/15 06:15:09;;;;;;;;;;;;;;;;;;5076666;28;1472;-73
2021/01/15 06:17:38;;;;;;;;;;;;;;;;;;5076465;28;958;-73
2021/01/15 06:20:04;;;;;;;;;;;;;;;;;;5076477;28;862;-74
2021/01/15 06:22:36;;;;;;;;;;;;;;;;;;5076633;28;1959;-73
2021/01/15 06:25:07;;;;;;;;;;;;;;;;;;5076539;28;1301;-73
2021/01/15 06:27:34;;;;;;;;;;;;;;;;;;5075267;28;825;-73
2021/01/15 06:30:01;;;;;;;;;;;;;;;;;;5076341;28;867;-74
2021/01/15 06:32:26;;;;;;;;;;;;;;;;;;5076409;28;1004;-73
2021/01/15 06:34:54;;;;;;;;;;;;;;;;;;5076084;28;1373;-73
2021/01/15 06:37:20;;;;;;;;;;;;;;;;;;5075065;28;1417;-73
2021/01/15 06:40:06;;;;;;;;;;;;;;;;;;5074921;28;1218;-73
2021/01/15 06:42:41;;;;;;;;;;;;;;;;;;5076103;28;1897;-73
2021/01/15 06:45:13;;;;;;;;;;;;;;;;;;5076089;28;1440;-73
2021/01/15 06:47:39;;;;;;;;;;;;;;;;;;5074864;28;1455;-73
2021/01/15 06:50:06;;;;;;;;;;;;;;;;;;5076025;28;817;-73
2021/01/15 06:52:35;;;;;;;;;;;;;;;;;;5075780;28;1212;-74
2021/01/15 06:55:01;;;;;;;;;;;;;;;;;;5075610;28;1290;-73
2021/01/15 06:57:35;;;;;;;;;;;;;;;;;;5076088;28;818;-74
2021/01/15 07:00:01;;;;;;;;;;;;;;;;;;5075873;28;833;-73
2021/01/15 07:02:38;;;;;;;;;;;;;;;;;;5075835;28;1985;-74
2021/01/15 07:05:03;;;;;;;;;;;;;;;;;;5074383;28;1337;-74
2021/01/15 07:07:29;;;;;;;;;;;;;;;;;;5075684;28;926;-73
2021/01/15 07:09:55;;;;;;;;;;;;;;;;;;5075440;28;840;-74
2021/01/15 07:12:22;;;;;;;;;;;;;;;;;;5075687;28;873;-73
2021/01/15 07:14:50;;;;;;;;;;;;;;;;;;5075567;28;1318;-72
2021/01/15 07:17:17;;;;;;;;;;;;;;;;;;5074214;28;1314;-73
2021/01/15 07:19:44;;;;;;;;;;;;;;;;;;5073886;28;1835;-73
2021/01/15 07:22:10;;;;;;;;;;;;;;;;;;5075333;28;1894;-72
2021/01/15 07:24:36;;;;;;;;;;;;;;;;;;5074283;28;1372;-73
2021/01/15 07:27:02;;;;;;;;;;;;;;;;;;5075663;28;891;-73
2021/01/15 07:29:29;;;;;;;;;;;;;;;;;;5075140;28;793;-73
2021/01/15 07:32:06;;;;;;;;;;;;;;;;;;5075178;28;869;-73
2021/01/15 07:34:31;;;;;;;;;;;;;;;;;;5075014;28;1388;-73
2021/01/15 07:37:00;;;;;;;;;;;;;;;;;;5075393;28;863;-72
2021/01/15 07:39:27;;;;;;;;;;;;;;;;;;5075448;28;904;-74
2021/01/15 07:41:53;;;;;;;;;;;;;;;;;;5073751;28;876;-74
2021/01/15 07:44:21;;;;;;;;;;;;;;;;;;5073482;28;1956;-74
2021/01/15 07:46:50;;;;;;;;;;;;;;;;;;5074838;28;1392;-74
2021/01/15 07:49:15;;;;;;;;;;;;;;;;;;5074894;28;845;-74
2021/01/15 07:51:40;;;;;;;;;;;;;;;;;;5073771;28;1143;-74
2021/01/15 07:54:05;;;;;;;;;;;;;;;;;;5074873;28;991;-74
2021/01/15 07:56:31;;;;;;;;;;;;;;;;;;5073625;28;1369;-73
2021/01/15 07:58:56;;;;;;;;;;;;;;;;;;5074996;28;927;-72
2021/01/15 08:01:22;;;;;;;;;;;;;;;;;;5073442;28;1633;-72
2021/01/15 08:03:56;;;;;;;;;;;;;;;;;;5074352;28;1955;-73
2021/01/15 08:06:22;;;;;;;;;;;;;;;;;;5074476;28;1365;-74
2021/01/15 08:09:00;;;;;;;;;;;;;;;;;;5074854;28;798;-73
2021/01/15 08:11:26;;;;;;;;;;;;;;;;;;5074643;28;849;-73
2021/01/15 08:14:10;;;;;;;;;;;;;;;;;;5074501;28;879;-73
2021/01/15 08:16:36;;;;;;;;;;;;;;;;;;5074000;28;1464;-74
2021/01/15 08:19:01;;;;;;;;;;;;;;;;;;5074615;28;885;-74
2021/01/15 08:21:27;;;;;;;;;;;;;;;;;;5073120;28;1220;-73
2021/01/15 08:24:01;;;;;;;;;;;;;;;;;;5073310;28;1969;-73
2021/01/15 08:26:41;;;;;;;;;;;;;;;;;;5072908;28;1475;-74
2021/01/15 08:29:07;;;;;;;;;;;;;;;;;;5073444;28;1355;-74
2021/01/15 08:31:32;;;;;;;;;;;;;;;;;;5074265;28;825;-73
2021/01/15 08:34:08;;;;;;;;;;;;;;;;;;5073405;28;1174;-74
2021/01/15 08:36:34;;;;;;;;;;;;;;;;;;5074115;28;1314;-75
2021/01/15 08:38:59;;;;;;;;;;;;;;;;;;5073472;28;1350;-74
2021/01/15 08:41:26;;;;;;;;;;;;;;;;;;5073096;28;1833;-73
2021/01/15 08:43:52;;;;;;;;;;;;;;;;;;5073120;28;1947;-73
2021/01/15 08:46:18;;;;;;;;;;;;;;;;;;5074143;28;1338;-74
2021/01/15 08:48:43;;;;;;;;;;;;;;;;;;5074244;28;822;-73
2021/01/15 08:51:10;;;;;;;;;;;;;;;;;;5074047;28;818;-74
2021/01/15 08:54:04;;;;;;;;;;;;;;;;;;5074134;28;1220;-74
2021/01/15 08:56:46;;;;;;;;;;;;;;;;;;5074246;28;1400;-73
2021/01/15 08:59:26;;;;;;;;;;;;;;;;;;5074284;28;868;-74
2021/01/15 09:01:53;;;;;;;;;;;;;;;;;;5072508;28;1198;-72
2021/01/15 09:04:22;;;;;;;;;;;;;;;;;;5072743;28;1890;-72
2021/01/15 09:06:50;;;;;;;;;;;;;;;;;;5073916;28;1294;-73
2021/01/15 09:09:18;;;;;;;;;;;;;;;;;;5074073;28;880;-71
2021/01/15 09:11:44;;;;;;;;;;;;;;;;;;5073875;28;877;-73
2021/01/15 09:14:12;;;;;;;;;;;;;;;;;;5072846;28;1159;-71
2021/01/15 09:16:38;;;;;;;;;;;;;;;;;;5072366;28;1352;-73
2021/01/15 09:19:05;;;;;;;;;;;;;;;;;;5072821;28;1657;-73
2021/01/15 09:21:30;;;;;;;;;;;;;;;;;;5072524;28;1373;-74
2021/01/15 09:23:55;;;;;;;;;;;;;;;;;;5073820;28;1956;-74
2021/01/15 09:26:21;;;;;;;;;;;;;;;;;;5073633;28;1294;-73
2021/01/15 09:28:46;;;;;;;;;;;;;;;;;;5074514;28;798;-73
2021/01/15 09:31:11;;;;;;;;;;;;;;;;;;5076232;28;813;-72
2021/01/15 09:33:46;;;;;;;;;;;;;;;;;;5077600;28;888;-73
2021/01/15 09:36:18;;;;;;;;;;;;;;;;;;5077616;28;1309;-72
2021/01/15 09:38:43;;;;;;;;;;;;;;;;;;5077248;28;1078;-73
2021/01/15 09:41:08;;;;;;;;;;;;;;;;;;5077352;28;860;-73
2021/01/15 09:43:33;;;;;;;;;;;;;;;;;;5077258;28;1897;-73
2021/01/15 09:45:58;;;;;;;;;;;;;;;;;;5077322;28;1365;-72
2021/01/15 09:48:24;;;;;;;;;;;;;;;;;;5077124;28;897;-72
2021/01/15 09:50:49;;;;;;;;;;;;;;;;;;5076053;28;869;-73
2021/01/15 09:53:14;;;;;;;;;;;;;;;;;;5076005;28;1204;-72
2021/01/15 09:55:39;;;;;;;;;;;;;;;;;;5075801;28;1396;-73
2021/01/15 09:58:05;;;;;;;;;;;;;;;;;;5077197;28;793;-72
2021/01/15 10:00:30;;;;;;;;;;;;;;;;;;5076846;28;849;-72
2021/01/15 10:02:55;;;;;;;;;;;;;;;;;;5075455;28;2256;-72
2021/01/15 10:05:21;;;;;;;;;;;;;;;;;;5075822;28;1709;-72
2021/01/15 10:07:47;;;;;;;;;;;;;;;;;;5075638;28;1671;-72
2021/01/15 10:10:13;;;;;;;;;;;;;;;;;;5075616;28;1336;-73
2021/01/15 10:12:39;;;;;;;;;;;;;;;;;;5076882;28;897;-74
2021/01/15 10:15:05;;;;;;;;;;;;;;;;;;5076626;28;1435;-73
2021/01/15 10:17:30;;;;;;;;;;;;;;;;;;5076632;28;968;-72
2021/01/15 10:19:55;;;;;;;;;;;;;;;;;;5076445;28;959;-73
2021/01/15 10:22:20;;;;;;;;;;;;;;;;;;5076693;28;1981;-72
2021/01/15 10:24:46;;;;;;;;;;;;;;;;;;5075346;28;1724;-72
2021/01/15 10:27:11;;;;;;;;;;;;;;;;;;5075358;28;865;-73
2021/01/15 10:29:36;;;;;;;;;;;;;;;;;;5076277;28;963;-72
2021/01/15 10:32:02;;;;;;;;;;;;;;;;;;5075297;28;1423;-72
2021/01/15 10:34:28;;;;;;;;;;;;;;;;;;5076419;28;1400;-72
2021/01/15 10:36:53;;;;;;;;;;;;;;;;;;5076604;28;805;-73
2021/01/15 10:39:19;;;;;;;;;;;;;;;;;;5074650;28;1381;-73
2021/01/15 10:41:46;;;;;;;;;;;;;;;;;;5076155;28;884;-73
2021/01/15 10:44:12;;;;;;;;;;;;;;;;;;5076193;28;1972;-72
2021/01/15 10:46:38;;;;;;;;;;;;;;;;;;5074813;28;1483;-73
2021/01/15 10:49:16;;;;;;;;;;;;;;;;;;5074654;28;1651;-73
2021/01/15 10:51:48;;;;;;;;;;;;;;;;;;5075903;28;869;-72
2021/01/15 10:54:14;;;;;;;;;;;;;;;;;;5075991;28;948;-73
2021/01/15 10:56:40;;;;;;;;;;;;;;;;;;5075763;28;1349;-72
2021/01/15 10:59:05;;;;;;;;;;;;;;;;;;5075739;28;885;-73
2021/01/15 11:01:34;;;;;;;;;;;;;;;;;;5074625;28;1391;-72
2021/01/15 11:03:59;;;;;;;;;;;;;;;;;;5075826;28;1901;-73
2021/01/15 11:06:24;;;;;;;;;;;;;;;;;;5074706;28;1341;-72
2021/01/15 11:08:49;;;;;;;;;;;;;;;;;;5075477;28;940;-72
2021/01/15 11:11:15;;;;;;;;;;;;;;;;;;5075536;28;929;-72
2021/01/15 11:13:40;;;;;;;;;;;;;;;;;;5075767;28;888;-72
2021/01/15 11:16:12;;;;;;;;;;;;;;;;;;5074229;28;1353;-72
2021/01/15 11:18:38;;;;;;;;;;;;;;;;;;5074271;28;1384;-72
2021/01/15 11:21:03;;;;;;;;;;;;;;;;;;5075092;28;880;-72
2021/01/15 11:23:28;;;;;;;;;;;;;;;;;;5074027;28;1901;-73
2021/01/15 11:25:54;;;;;;;;;;;;;;;;;;5075375;28;1353;-73
2021/01/15 11:28:19;;;;;;;;;;;;;;;;;;5075441;28;887;-73
2021/01/15 11:30:44;;;;;;;;;;;;;;;;;;5074096;28;1140;-73
2021/01/15 11:33:09;;;;;;;;;;;;;;;;;;5075106;28;955;-73
2021/01/15 11:35:35;;;;;;;;;;;;;;;;;;5073854;28;1361;-72
2021/01/15 11:38:00;;;;;;;;;;;;;;;;;;5073758;28;1489;-74
2021/01/15 11:40:25;;;;;;;;;;;;;;;;;;5073659;28;1019;-75
2021/01/15 11:42:57;;;;;;;;;;;;;;;;;;5074757;28;1897;-75
2021/01/15 11:45:23;;;;;;;;;;;;;;;;;;5073852;28;1301;-75
2021/01/15 11:47:55;;;;;;;;;;;;;;;;;;5073602;28;818;-74
2021/01/15 11:50:21;;;;;;;;;;;;;;;;;;5074134;28;1226;-73
2021/01/15 11:52:47;;;;;;;;;;;;;;;;;;5074727;28;924;-73
2021/01/15 11:55:12;;;;;;;;;;;;;;;;;;5073323;28;1338;-73
2021/01/15 11:57:38;;;;;;;;;;;;;;;;;;5075135;28;799;-73
2021/01/15 12:00:04;;;;;;;;;;;;;;;;;;5073230;28;2618;-72
2021/01/15 12:02:32;;;;;;;;;;;;;;;;;;5074604;28;1007;-72
2021/01/15 12:04:57;;;;;;;;;;;;;;;;;;5074766;28;1360;-72
2021/01/15 12:07:22;;;;;;;;;;;;;;;;;;5074688;28;904;-74
2021/01/15 12:09:48;;;;;;;;;;;;;;;;;;5074706;28;789;-74
2021/01/15 12:12:13;;;;;;;;;;;;;;;;;;5074514;28;913;-74
2021/01/15 12:14:38;;;;;;;;;;;;;;;;;;5074542;28;1932;-74
2021/01/15 12:17:03;;;;;;;;;;;;;;;;;;5074579;28;952;-74
2021/01/15 12:19:29;;;;;;;;;;;;;;;;;;5073332;28;1714;-74
2021/01/15 12:21:54;;;;;;;;;;;;;;;;;;5074422;28;952;-74
2021/01/15 12:24:20;;;;;;;;;;;;;;;;;;5071260;28;1526;-74
2021/01/15 12:26:46;;;;;;;;;;;;;;;;;;5053257;28;1442;-74
2021/01/15 12:29:11;;;;;;;;;;;;;;;;;;5054543;28;875;-74
2021/01/15 12:31:37;;;;;;;;;;;;;;;;;;5062186;28;1352;-74
2021/01/15 12:34:03;;;;;;;;;;;;;;;;;;5054198;28;1951;-74
2021/01/15 12:36:28;;;;;;;;;;;;;;;;;;5054146;28;1432;-74
2021/01/15 12:38:53;;;;;;;;;;;;;;;;;;5055532;28;1442;-75
2021/01/15 12:41:19;;;;;;;;;;;;;;;;;;5056779;28;1323;-75
2021/01/15 12:43:44;;;;;;;;;;;;;;;;;;5052980;28;944;-75
2021/01/15 12:46:11;;;;;;;;;;;;;;;;;;5053867;28;1400;-75
2021/01/15 12:48:36;;;;;;;;;;;;;;;;;;5054177;28;1339;-74
2021/01/15 12:51:01;;;;;;;;;;;;;;;;;;5054202;28;857;-75
2021/01/15 12:53:26;;;;;;;;;;;;;;;;;;5054024;28;1956;-75
2021/01/15 12:55:52;;;;;;;;;;;;;;;;;;5052599;28;1455;-75
2021/01/15 12:58:17;;;;;;;;;;;;;;;;;;5052867;28;896;-75
2021/01/15 13:00:42;;;;;;;;;;;;;;;;;;5052605;28;718;-75
2021/01/15 13:03:07;;;;;;;;;;;;;;;;;;5055497;28;1374;-76
2021/01/15 13:05:33;;;;;;;;;;;;;;;;;;5057856;28;1409;-75
2021/01/15 13:07:58;;;;;;;;;;;;;;;;;;5058036;28;932;-76
2021/01/15 13:10:24;;;;;;;;;;;;;;;;;;5057787;28;825;-75
2021/01/15 13:12:49;;;;;;;;;;;;;;;;;;5058158;28;1914;-75
2021/01/15 13:15:15;;;;;;;;;;;;;;;;;;5057512;28;1290;-75
2021/01/15 13:18:06;;;;;;;;;;;;;;;;;;5057867;28;896;-74
2021/01/15 13:20:32;;;;;;;;;;;;;;;;;;5058125;28;1107;-75
2021/01/15 13:23:01;;;;;;;;;;;;;;;;;;5056201;28;886;-74
2021/01/15 13:25:27;;;;;;;;;;;;;;;;;;5056306;28;1422;-74
2021/01/15 13:27:52;;;;;;;;;;;;;;;;;;5057735;28;841;-74
2021/01/15 13:30:19;;;;;;;;;;;;;;;;;;5057383;28;853;-74
2021/01/15 13:32:44;;;;;;;;;;;;;;;;;;5055947;28;1956;-74
2021/01/15 13:35:09;;;;;;;;;;;;;;;;;;5057393;28;1333;-74
2021/01/15 13:37:37;;;;;;;;;;;;;;;;;;5056536;28;1035;-74
2021/01/15 13:40:03;;;;;;;;;;;;;;;;;;5056193;28;1382;-74
2021/01/15 13:42:28;;;;;;;;;;;;;;;;;;5057193;28;951;-74
2021/01/15 13:44:53;;;;;;;;;;;;;;;;;;5057316;28;1348;-74
2021/01/15 13:47:18;;;;;;;;;;;;;;;;;;5055899;28;1679;-73
2021/01/15 13:49:44;;;;;;;;;;;;;;;;;;5057066;28;816;-73
2021/01/15 13:52:10;;;;;;;;;;;;;;;;;;5055911;28;912;-74
2021/01/15 13:54:35;;;;;;;;;;;;;;;;;;5057047;28;1910;-74
2021/01/15 13:57:00;;;;;;;;;;;;;;;;;;5056087;28;900;-74
2021/01/15 13:59:25;;;;;;;;;;;;;;;;;;5055681;28;1313;-74
2021/01/15 14:01:51;;;;;;;;;;;;;;;;;;5056798;28;904;-76
2021/01/15 14:04:16;;;;;;;;;;;;;;;;;;5057053;28;805;-75
2021/01/15 14:06:41;;;;;;;;;;;;;;;;;;5056658;28;1436;-75
2021/01/15 14:09:08;;;;;;;;;;;;;;;;;;5056900;28;881;-75
2021/01/15 14:11:35;;;;;;;;;;;;;;;;;;5055173;28;822;-75
2021/01/15 14:14:00;;;;;;;;;;;;;;;;;;5054519;28;1925;-75
2021/01/15 14:16:28;;;;;;;;;;;;;;;;;;5056434;28;1348;-75
2021/01/15 14:18:53;;;;;;;;;;;;;;;;;;5057122;28;930;-75
2021/01/15 14:21:19;;;;;;;;;;;;;;;;;;5056458;28;869;-75
2021/01/15 14:23:44;;;;;;;;;;;;;;;;;;5056395;28;845;-75
2021/01/15 14:26:09;;;;;;;;;;;;;;;;;;5056553;28;1428;-75
2021/01/15 14:28:35;;;;;;;;;;;;;;;;;;5056453;28;960;-75
2021/01/15 14:31:00;;;;;;;;;;;;;;;;;;5056464;28;889;-75
2021/01/15 14:33:25;;;;;;;;;;;;;;;;;;5056172;28;1897;-75
2021/01/15 14:35:50;;;;;;;;;;;;;;;;;;5055093;28;1459;-75
2021/01/15 14:38:15;;;;;;;;;;;;;;;;;;5056515;28;849;-75
2021/01/15 14:40:41;;;;;;;;;;;;;;;;;;5056133;28;825;-75
2021/01/15 14:43:06;;;;;;;;;;;;;;;;;;5056211;28;972;-75
2021/01/15 14:45:31;;;;;;;;;;;;;;;;;;5056065;28;1278;-75
2021/01/15 14:47:58;;;;;;;;;;;;;;;;;;5054792;28;1408;-75
2021/01/15 14:50:23;;;;;;;;;;;;;;;;;;5055950;28;841;-75
2021/01/15 14:52:49;;;;;;;;;;;;;;;;;;5055845;28;1917;-75
2021/01/15 14:55:15;;;;;;;;;;;;;;;;;;5054714;28;1353;-75
2021/01/15 14:57:41;;;;;;;;;;;;;;;;;;5056106;28;891;-75
2021/01/15 15:00:07;;;;;;;;;;;;;;;;;;5054485;28;1209;-75
2021/01/15 15:02:37;;;;;;;;;;;;;;;;;;5037800;28;1313;-75
2021/01/15 15:05:03;;;;;;;;;;;;;;;;;;5054287;28;1271;-75
2021/01/15 15:07:28;;;;;;;;;;;;;;;;;;5054327;28;1217;-75
2021/01/15 15:09:53;;;;;;;;;;;;;;;;;;5055759;28;1043;-75
2021/01/15 15:12:19;;;;;;;;;;;;;;;;;;5055769;28;825;-75
2021/01/15 15:14:44;;;;;;;;;;;;;;;;;;5054309;28;1953;-75
2021/01/15 15:17:09;;;;;;;;;;;;;;;;;;5055306;28;849;-75
2021/01/15 15:19:35;;;;;;;;;;;;;;;;;;5055468;28;840;-75
2021/01/15 15:22:00;;;;;;;;;;;;;;;;;;5055638;28;738;-75
2021/01/15 15:24:25;;;;;;;;;;;;;;;;;;5055213;28;1318;-75
2021/01/15 15:26:50;;;;;;;;;;;;;;;;;;5055503;28;920;-75
2021/01/15 15:29:17;;;;;;;;;;;;;;;;;;5055183;28;896;-75
2021/01/15 15:31:43;;;;;;;;;;;;;;;;;;5054878;28;921;-75
2021/01/15 15:34:08;;;;;;;;;;;;;;;;;;5055264;28;1894;-75
2021/01/15 15:36:34;;;;;;;;;;;;;;;;;;5054213;28;1421;-75
2021/01/15 15:38:59;;;;;;;;;;;;;;;;;;5053944;28;2520;-75
2021/01/15 15:41:25;;;;;;;;;;;;;;;;;;5053764;28;1414;-75
2021/01/15 15:43:50;;;;;;;;;;;;;;;;;;5054950;28;876;-75
2021/01/15 15:46:17;;;;;;;;;;;;;;;;;;5053464;28;1285;-75
2021/01/15 15:48:43;;;;;;;;;;;;;;;;;;5055394;28;872;-75
2021/01/15 15:51:09;;;;;;;;;;;;;;;;;;5054968;28;853;-75
2021/01/15 15:53:35;;;;;;;;;;;;;;;;;;5053552;28;1886;-75
2021/01/15 15:56:00;;;;;;;;;;;;;;;;;;5053631;28;1403;-75
2021/01/15 15:58:26;;;;;;;;;;;;;;;;;;5054716;28;896;-75
2021/01/15 16:00:51;;;;;;;;;;;;;;;;;;5054591;28;872;-75
2021/01/15 16:03:16;;;;;;;;;;;;;;;;;;5054801;28;1049;-75
2021/01/15 16:05:42;;;;;;;;;;;;;;;;;;5054614;28;1429;-75
2021/01/15 16:08:07;;;;;;;;;;;;;;;;;;5054613;28;960;-75
2021/01/15 16:10:32;;;;;;;;;;;;;;;;;;5054358;28;991;-75
2021/01/15 16:12:59;;;;;;;;;;;;;;;;;;5054762;28;1890;-75
2021/01/15 16:15:24;;;;;;;;;;;;;;;;;;5054470;28;1417;-74
2021/01/15 16:17:50;;;;;;;;;;;;;;;;;;5053224;28;1403;-74
2021/01/15 16:20:16;;;;;;;;;;;;;;;;;;5054353;28;794;-75
2021/01/15 16:22:45;;;;;;;;;;;;;;;;;;5054247;28;930;-75
2021/01/15 16:25:10;;;;;;;;;;;;;;;;;;5054504;28;1329;-75
2021/01/15 16:27:35;;;;;;;;;;;;;;;;;;5054412;28;990;-75
2021/01/15 16:30:02;;;;;;;;;;;;;;;;;;5052998;28;889;-74
2021/01/15 16:32:30;;;;;;;;;;;;;;;;;;5054499;28;864;-74
2021/01/15 16:34:56;;;;;;;;;;;;;;;;;;5053357;28;1559;-74
2021/01/15 16:37:21;;;;;;;;;;;;;;;;;;5053809;28;870;-75
2021/01/15 16:39:49;;;;;;;;;;;;;;;;;;5054265;28;889;-75
2021/01/15 16:42:15;;;;;;;;;;;;;;;;;;5053087;28;936;-74
2021/01/15 16:44:41;;;;;;;;;;;;;;;;;;5054159;28;1444;-75
2021/01/15 16:47:06;;;;;;;;;;;;;;;;;;5054386;28;885;-74
2021/01/15 16:49:33;;;;;;;;;;;;;;;;;;5054153;28;935;-74
2021/01/15 16:51:58;;;;;;;;;;;;;;;;;;5053091;28;1230;-74
2021/01/15 16:54:24;;;;;;;;;;;;;;;;;;5054120;28;1963;-74
2021/01/15 16:56:50;;;;;;;;;;;;;;;;;;5054199;28;801;-74
2021/01/15 16:59:15;;;;;;;;;;;;;;;;;;5052716;28;1335;-74
2021/01/15 17:01:40;;;;;;;;;;;;;;;;;;5052755;28;1272;-74
2021/01/15 17:04:06;;;;;;;;;;;;;;;;;;5054291;28;902;-74
2021/01/15 17:06:32;;;;;;;;;;;;;;;;;;5054100;28;1334;-74
2021/01/15 17:08:57;;;;;;;;;;;;;;;;;;5052838;28;876;-74
2021/01/15 17:11:22;;;;;;;;;;;;;;;;;;5052559;28;928;-74
2021/01/15 17:13:47;;;;;;;;;;;;;;;;;;5054046;28;1890;-75
2021/01/15 17:16:17;;;;;;;;;;;;;;;;;;5053870;28;1404;-75
2021/01/15 17:18:43;;;;;;;;;;;;;;;;;;5053984;28;885;-75
2021/01/15 17:21:08;;;;;;;;;;;;;;;;;;5052366;28;1158;-74